sensor_id;sensor_type;location;lat;lon;timestamp;temperature;humidity
30467;DHT22;17258;52.560;13.046;2023-03-01T00:02:01;2.80;56.20
30467;DHT22;17258;52.560;13.046;2023-03-01T00:12:03;2.70;56.20
30467;DHT22;17258;52.560;13.046;2023-03-01T00:22:04;2.70;56.30
30467;DHT22;17258;52.560;13.046;2023-03-01T00:32:05;2.60;56.30
30467;DHT22;17258;52.560;13.046;2023-03-01T00:42:05;2.50;56.30
30467;DHT22;17258;52.560;13.046;2023-03-01T00:52:06;2.40;56.30
30467;DHT22;17258;52.560;13.046;2023-03-01T01:02:06;2.40;56.40
30467;DHT22;17258;52.560;13.046;2023-03-01T01:12:07;2.30;56.40
30467;DHT22;17258;52.560;13.046;2023-03-01T01:22:08;2.30;56.50
30467;DHT22;17258;52.560;13.046;2023-03-01T01:32:09;2.20;56.50
30467;DHT22;17258;52.560;13.046;2023-03-01T01:42:15;2.10;56.50
30467;DHT22;17258;52.560;13.046;2023-03-01T01:52:20;2.00;56.50
30467;DHT22;17258;52.560;13.046;2023-03-01T02:02:24;1.90;56.50
30467;DHT22;17258;52.560;13.046;2023-03-01T02:12:25;1.90;56.50
30467;DHT22;17258;52.560;13.046;2023-03-01T02:22:31;1.80;56.50
30467;DHT22;17258;52.560;13.046;2023-03-01T02:32:33;1.70;56.60
30467;DHT22;17258;52.560;13.046;2023-03-01T02:42:38;1.60;56.60
30467;DHT22;17258;52.560;13.046;2023-03-01T02:52:53;1.60;56.60
30467;DHT22;17258;52.560;13.046;2023-03-01T03:03:02;1.50;56.60
30467;DHT22;17258;52.560;13.046;2023-03-01T03:13:06;1.40;56.70
30467;DHT22;17258;52.560;13.046;2023-03-01T03:23:08;1.40;56.70
30467;DHT22;17258;52.560;13.046;2023-03-01T03:33:10;1.30;56.70
30467;DHT22;17258;52.560;13.046;2023-03-01T03:43:17;1.30;56.80
30467;DHT22;17258;52.560;13.046;2023-03-01T03:53:23;1.20;56.80
30467;DHT22;17258;52.560;13.046;2023-03-01T04:03:26;1.10;56.70
30467;DHT22;17258;52.560;13.046;2023-03-01T04:13:27;1.10;56.80
30467;DHT22;17258;52.560;13.046;2023-03-01T04:23:27;1.10;56.80
30467;DHT22;17258;52.560;13.046;2023-03-01T04:33:28;1.00;57.40
30467;DHT22;17258;52.560;13.046;2023-03-01T04:43:29;0.90;56.80
30467;DHT22;17258;52.560;13.046;2023-03-01T04:53:30;0.90;56.80
30467;DHT22;17258;52.560;13.046;2023-03-01T05:03:30;0.80;56.80
30467;DHT22;17258;52.560;13.046;2023-03-01T05:13:31;0.80;56.80
30467;DHT22;17258;52.560;13.046;2023-03-01T05:23:32;0.70;56.80
30467;DHT22;17258;52.560;13.046;2023-03-01T05:33:33;0.70;56.90
30467;DHT22;17258;52.560;13.046;2023-03-01T05:43:34;0.60;56.90
30467;DHT22;17258;52.560;13.046;2023-03-01T05:53:35;0.60;56.90
30467;DHT22;17258;52.560;13.046;2023-03-01T06:03:35;0.50;56.90
30467;DHT22;17258;52.560;13.046;2023-03-01T06:13:36;0.50;56.90
30467;DHT22;17258;52.560;13.046;2023-03-01T06:23:36;0.40;57.00
30467;DHT22;17258;52.560;13.046;2023-03-01T06:33:37;0.40;57.00
30467;DHT22;17258;52.560;13.046;2023-03-01T06:43:38;0.40;57.10
30467;DHT22;17258;52.560;13.046;2023-03-01T06:53:38;0.40;57.20
30467;DHT22;17258;52.560;13.046;2023-03-01T07:03:39;0.50;57.30
30467;DHT22;17258;52.560;13.046;2023-03-01T07:13:40;0.50;57.50
30467;DHT22;17258;52.560;13.046;2023-03-01T07:23:42;0.60;57.60
30467;DHT22;17258;52.560;13.046;2023-03-01T07:33:42;0.80;57.80
30467;DHT22;17258;52.560;13.046;2023-03-01T07:43:43;1.00;58.10
30467;DHT22;17258;52.560;13.046;2023-03-01T07:53:46;1.20;58.20
30467;DHT22;17258;52.560;13.046;2023-03-01T08:03:48;1.50;58.50
30467;DHT22;17258;52.560;13.046;2023-03-01T08:13:48;1.80;58.60
30467;DHT22;17258;52.560;13.046;2023-03-01T08:23:49;2.20;58.80
30467;DHT22;17258;52.560;13.046;2023-03-01T08:33:52;2.50;59.00
30467;DHT22;17258;52.560;13.046;2023-03-01T08:43:56;3.00;59.40
30467;DHT22;17258;52.560;13.046;2023-03-01T08:54:00;3.40;60.00
30467;DHT22;17258;52.560;13.046;2023-03-01T09:04:01;3.90;59.50
30467;DHT22;17258;52.560;13.046;2023-03-01T09:14:05;4.50;59.70
30467;DHT22;17258;52.560;13.046;2023-03-01T09:24:08;5.00;59.80
30467;DHT22;17258;52.560;13.046;2023-03-01T09:34:13;5.60;59.80
30467;DHT22;17258;52.560;13.046;2023-03-01T09:44:40;6.20;59.80
30467;DHT22;17258;52.560;13.046;2023-03-01T09:54:46;6.80;59.60
30467;DHT22;17258;52.560;13.046;2023-03-01T10:04:58;7.30;59.40
30467;DHT22;17258;52.560;13.046;2023-03-01T10:15:17;7.80;59.20
30467;DHT22;17258;52.560;13.046;2023-03-01T10:25:43;8.20;58.70
30467;DHT22;17258;52.560;13.046;2023-03-01T10:35:53;8.50;58.30
30467;DHT22;17258;52.560;13.046;2023-03-01T10:45:54;8.80;58.20
30467;DHT22;17258;52.560;13.046;2023-03-01T11:16:12;9.60;57.70
30467;DHT22;17258;52.560;13.046;2023-03-01T11:26:13;9.90;57.40
30467;DHT22;17258;52.560;13.046;2023-03-01T11:36:49;10.20;57.30
30467;DHT22;17258;52.560;13.046;2023-03-01T11:57:00;10.90;57.00
30467;DHT22;17258;52.560;13.046;2023-03-01T12:17:38;11.70;56.30
30467;DHT22;17258;52.560;13.046;2023-03-01T12:28:19;12.10;56.00
30467;DHT22;17258;52.560;13.046;2023-03-01T12:38:37;12.40;54.80
30467;DHT22;17258;52.560;13.046;2023-03-01T12:49:14;12.80;55.20
30467;DHT22;17258;52.560;13.046;2023-03-01T12:59:31;13.10;54.00
30467;DHT22;17258;52.560;13.046;2023-03-01T13:30:43;13.70;53.70
30467;DHT22;17258;52.560;13.046;2023-03-01T13:50:51;13.90;53.80
30467;DHT22;17258;52.560;13.046;2023-03-01T14:21:22;14.10;52.90
30467;DHT22;17258;52.560;13.046;2023-03-01T14:31:40;14.10;52.40
30467;DHT22;17258;52.560;13.046;2023-03-01T14:41:42;14.00;51.40
30467;DHT22;17258;52.560;13.046;2023-03-01T14:51:53;13.90;52.00
30467;DHT22;17258;52.560;13.046;2023-03-01T15:01:58;13.80;51.70
30467;DHT22;17258;52.560;13.046;2023-03-01T15:11:59;13.70;52.20
30467;DHT22;17258;52.560;13.046;2023-03-01T15:21:59;13.60;52.20
30467;DHT22;17258;52.560;13.046;2023-03-01T15:32:29;13.50;52.10
30467;DHT22;17258;52.560;13.046;2023-03-01T15:52:35;13.20;52.10
30467;DHT22;17258;52.560;13.046;2023-03-01T16:02:41;13.10;51.80
30467;DHT22;17258;52.560;13.046;2023-03-01T16:12:43;12.90;51.90
30467;DHT22;17258;52.560;13.046;2023-03-01T16:22:45;12.70;51.90
30467;DHT22;17258;52.560;13.046;2023-03-01T16:32:47;12.50;51.90
30467;DHT22;17258;52.560;13.046;2023-03-01T16:42:49;12.30;51.90
30467;DHT22;17258;52.560;13.046;2023-03-01T16:52:50;12.00;51.90
30467;DHT22;17258;52.560;13.046;2023-03-01T17:02:50;11.70;51.90
30467;DHT22;17258;52.560;13.046;2023-03-01T17:12:52;11.40;52.00
30467;DHT22;17258;52.560;13.046;2023-03-01T17:22:54;11.10;52.00
30467;DHT22;17258;52.560;13.046;2023-03-01T17:32:54;10.80;52.10
30467;DHT22;17258;52.560;13.046;2023-03-01T17:42:55;10.50;52.20
30467;DHT22;17258;52.560;13.046;2023-03-01T17:52:56;10.10;52.20
30467;DHT22;17258;52.560;13.046;2023-03-01T18:02:57;9.80;52.40
30467;DHT22;17258;52.560;13.046;2023-03-01T18:12:58;9.50;52.50
30467;DHT22;17258;52.560;13.046;2023-03-01T18:22:59;9.20;52.60
30467;DHT22;17258;52.560;13.046;2023-03-01T18:32:59;8.90;52.70
30467;DHT22;17258;52.560;13.046;2023-03-01T18:43:00;8.60;52.80
30467;DHT22;17258;52.560;13.046;2023-03-01T18:53:00;8.30;52.90
30467;DHT22;17258;52.560;13.046;2023-03-01T19:03:01;8.10;53.00
30467;DHT22;17258;52.560;13.046;2023-03-01T19:13:03;7.80;53.10
30467;DHT22;17258;52.560;13.046;2023-03-01T19:23:03;7.60;53.20
30467;DHT22;17258;52.560;13.046;2023-03-01T19:33:04;7.30;53.20
30467;DHT22;17258;52.560;13.046;2023-03-01T19:43:05;7.10;53.30
30467;DHT22;17258;52.560;13.046;2023-03-01T19:53:05;6.90;53.40
30467;DHT22;17258;52.560;13.046;2023-03-01T20:03:06;6.70;53.50
30467;DHT22;17258;52.560;13.046;2023-03-01T20:13:07;6.50;53.70
30467;DHT22;17258;52.560;13.046;2023-03-01T20:23:07;6.30;54.30
30467;DHT22;17258;52.560;13.046;2023-03-01T20:33:08;6.20;53.80
30467;DHT22;17258;52.560;13.046;2023-03-01T20:43:09;6.10;53.90
30467;DHT22;17258;52.560;13.046;2023-03-01T20:53:09;5.90;53.90
30467;DHT22;17258;52.560;13.046;2023-03-01T21:03:10;5.80;54.00
30467;DHT22;17258;52.560;13.046;2023-03-01T21:13:11;5.60;54.00
30467;DHT22;17258;52.560;13.046;2023-03-01T21:23:11;5.50;54.10
30467;DHT22;17258;52.560;13.046;2023-03-01T21:33:12;5.40;54.10
30467;DHT22;17258;52.560;13.046;2023-03-01T21:43:13;5.30;54.20
30467;DHT22;17258;52.560;13.046;2023-03-01T21:53:13;5.20;54.20
30467;DHT22;17258;52.560;13.046;2023-03-01T22:03:14;5.10;54.30
30467;DHT22;17258;52.560;13.046;2023-03-01T22:13:16;5.00;54.30
30467;DHT22;17258;52.560;13.046;2023-03-01T22:23:16;4.90;54.40
30467;DHT22;17258;52.560;13.046;2023-03-01T22:33:17;4.80;54.40
30467;DHT22;17258;52.560;13.046;2023-03-01T22:43:18;4.70;54.50
30467;DHT22;17258;52.560;13.046;2023-03-01T22:53:18;4.60;55.10
30467;DHT22;17258;52.560;13.046;2023-03-01T23:03:19;4.50;54.50
30467;DHT22;17258;52.560;13.046;2023-03-01T23:13:20;4.50;54.60
30467;DHT22;17258;52.560;13.046;2023-03-01T23:23:20;4.40;54.60
30467;DHT22;17258;52.560;13.046;2023-03-01T23:33:21;4.30;54.60
30467;DHT22;17258;52.560;13.046;2023-03-01T23:43:22;4.20;54.70
30467;DHT22;17258;52.560;13.046;2023-03-01T23:53:22;4.10;54.70
